Terminal Aerodrome Forecast
Issued by NWS

Home | Current Version | Previous Version | Text Only | Print | Product List | Glossary On
Versions: 1 2 3 4 5 6 7 8 9 10 11 12 13 14
688
FTUS45 KPSR 262320
TAFBLH
TAF
KBLH 262320Z 2700/2724 21010G20KT P6SM SCT250
     FM270300 22009KT P6SM SCT250
      TEMPO 2710/2714 VRB05KT
     FM271700 19010G16KT P6SM SKC=

USA.gov is the U.S. government's official web portal to all federal, state and local government web resources and services.